METAR Data
IDs: Format: Raw Decoded Include TAF

Data at: 2109 UTC 18 Apr 2021

LIRV 181755Z 14005KT 9999 SCT025 10/07 Q1013 RMK BKN SCT070 MON E SE LIB NC VIS MIN 9999 WIND THR04 ///// KT BLU